Time;durP1;ratioP1;P1;durP2;ratioP2;P2;SDS_P1;SDS_P2;PMS_P1;PMS_P2;Temp;Humidity;BMP_temperature;BMP_pressure;BME280_temperature;BME280_humidity;BME280_pressure;Samples;Min_cycle;Max_cycle;Signal;HPM_P1;HPM_P2
2022/03/29 00:02:07;;;;;;;32.65;20.30;;;;;;;;;;5072142;28;20440;-74
2022/03/29 00:04:33;;;;;;;31.13;19.58;;;;;;;;;;5101848;27;20064;-74
2022/03/29 00:06:59;;;;;;;32.65;20.33;;;;;;;;;;5062236;28;20051;-74
2022/03/29 00:09:26;;;;;;;30.63;20.15;;;;;;;;;;5067574;28;20734;-74
2022/03/29 00:11:52;;;;;;;30.50;20.40;;;;;;;;;;5082904;28;20047;-74
2022/03/29 00:14:18;;;;;;;30.88;21.15;;;;;;;;;;5061872;28;20051;-74
2022/03/29 00:16:44;;;;;;;34.20;20.75;;;;;;;;;;5066156;28;20124;-74
2022/03/29 00:19:10;;;;;;;34.08;21.67;;;;;;;;;;5085294;28;20070;-76
2022/03/29 00:21:36;;;;;;;30.65;20.38;;;;;;;;;;5066751;28;20043;-75
2022/03/29 00:24:02;;;;;;;33.80;20.80;;;;;;;;;;5088094;28;20036;-75
2022/03/29 00:26:29;;;;;;;32.88;20.65;;;;;;;;;;5082927;28;20042;-73
2022/03/29 00:28:55;;;;;;;34.95;21.60;;;;;;;;;;5085824;28;20044;-77
2022/03/29 00:31:21;;;;;;;30.60;20.73;;;;;;;;;;5096079;28;20075;-81
2022/03/29 00:33:47;;;;;;;31.77;20.85;;;;;;;;;;5080046;28;20067;-76
2022/03/29 00:36:13;;;;;;;32.88;21.48;;;;;;;;;;5082158;28;20119;-81
2022/03/29 00:38:40;;;;;;;35.67;20.83;;;;;;;;;;5048318;28;20047;-77
2022/03/29 00:41:06;;;;;;;38.45;22.52;;;;;;;;;;5084616;28;20093;-77
2022/03/29 00:43:32;;;;;;;33.78;21.33;;;;;;;;;;5081387;28;20119;-78
2022/03/29 00:45:58;;;;;;;34.05;22.95;;;;;;;;;;5101941;28;20063;-77
2022/03/29 00:48:24;;;;;;;37.85;22.13;;;;;;;;;;5081740;28;20052;-78
2022/03/29 00:50:50;;;;;;;32.05;21.80;;;;;;;;;;5050394;28;20459;-78
2022/03/29 00:53:17;;;;;;;33.85;22.30;;;;;;;;;;5065239;28;20470;-79
2022/03/29 00:55:44;;;;;;;36.00;22.42;;;;;;;;;;5083796;28;20246;-77
2022/03/29 00:58:12;;;;;;;30.02;21.45;;;;;;;;;;5083825;28;20055;-73
2022/03/29 01:00:38;;;;;;;32.05;20.58;;;;;;;;;;5067180;28;20044;-73
2022/03/29 01:03:04;;;;;;;35.88;20.33;;;;;;;;;;5048146;28;20127;-75
2022/03/29 01:05:31;;;;;;;34.20;21.50;;;;;;;;;;5084141;28;20520;-75
2022/03/29 01:07:57;;;;;;;31.42;20.30;;;;;;;;;;5069225;28;20044;-75
2022/03/29 01:10:24;;;;;;;31.88;21.88;;;;;;;;;;5066754;28;20044;-75
2022/03/29 01:12:51;;;;;;;32.72;22.23;;;;;;;;;;5082370;28;20135;-79
2022/03/29 01:15:18;;;;;;;32.92;20.77;;;;;;;;;;5064307;28;20040;-79
2022/03/29 01:17:44;;;;;;;31.88;20.08;;;;;;;;;;5084201;28;20118;-74
2022/03/29 01:20:15;;;;;;;31.77;20.02;;;;;;;;;;5083094;28;20070;-74
2022/03/29 01:22:44;;;;;;;33.10;19.95;;;;;;;;;;5065077;28;20127;-74
2022/03/29 01:25:11;;;;;;;31.85;19.70;;;;;;;;;;5081006;28;20063;-75
2022/03/29 01:27:37;;;;;;;28.15;18.83;;;;;;;;;;5081967;28;20058;-75
2022/03/29 01:30:04;;;;;;;25.67;19.10;;;;;;;;;;5081508;28;20040;-74
2022/03/29 01:32:31;;;;;;;32.45;19.58;;;;;;;;;;5079858;28;20046;-75
2022/03/29 01:34:57;;;;;;;30.10;20.08;;;;;;;;;;5078712;28;20116;-74
2022/03/29 01:37:24;;;;;;;27.95;19.25;;;;;;;;;;5083291;28;20048;-75
2022/03/29 01:39:50;;;;;;;30.83;19.00;;;;;;;;;;5082959;28;20082;-79
2022/03/29 01:42:18;;;;;;;32.22;19.95;;;;;;;;;;5085875;28;20044;-74
2022/03/29 01:44:44;;;;;;;29.77;19.60;;;;;;;;;;5087259;28;20047;-74
2022/03/29 01:47:11;;;;;;;30.77;18.25;;;;;;;;;;5089883;28;20072;-75
2022/03/29 01:49:37;;;;;;;31.08;18.70;;;;;;;;;;5083925;28;20060;-76
2022/03/29 01:52:04;;;;;;;32.22;18.90;;;;;;;;;;5084171;28;20040;-74
2022/03/29 01:54:31;;;;;;;37.05;19.55;;;;;;;;;;5069251;28;20056;-74
2022/03/29 01:56:57;;;;;;;28.38;18.02;;;;;;;;;;5054572;28;20109;-74
2022/03/29 01:59:23;;;;;;;33.30;18.10;;;;;;;;;;5086964;28;20044;-79
2022/03/29 02:01:50;;;;;;;29.05;17.80;;;;;;;;;;5086741;28;20040;-75
2022/03/29 02:04:18;;;;;;;28.27;17.98;;;;;;;;;;5070904;28;20161;-74
2022/03/29 02:06:44;;;;;;;28.30;17.88;;;;;;;;;;5068809;28;20070;-74
2022/03/29 02:09:12;;;;;;;27.17;18.08;;;;;;;;;;5070151;28;20044;-74
2022/03/29 02:11:42;;;;;;;29.73;19.00;;;;;;;;;;5085844;28;20040;-74
2022/03/29 02:14:08;;;;;;;31.33;18.45;;;;;;;;;;5085292;28;20052;-74
2022/03/29 02:16:34;;;;;;;33.90;19.65;;;;;;;;;;5069884;28;20127;-73
2022/03/29 02:19:00;;;;;;;30.23;20.10;;;;;;;;;;5070354;28;20067;-75
2022/03/29 02:21:26;;;;;;;29.38;18.45;;;;;;;;;;5087631;28;20058;-75
2022/03/29 02:23:52;;;;;;;32.65;21.02;;;;;;;;;;5072145;28;20461;-74
2022/03/29 02:26:18;;;;;;;36.55;20.48;;;;;;;;;;5054807;28;20477;-74
2022/03/29 02:28:45;;;;;;;36.60;21.90;;;;;;;;;;5070750;28;20048;-74
2022/03/29 02:31:11;;;;;;;35.67;23.08;;;;;;;;;;5071358;28;20127;-75
2022/03/29 02:33:37;;;;;;;33.42;22.17;;;;;;;;;;5071865;28;20040;-74
2022/03/29 02:36:03;;;;;;;36.10;23.00;;;;;;;;;;5085074;28;20097;-75
2022/03/29 02:38:29;;;;;;;37.22;22.20;;;;;;;;;;5087180;28;20364;-75
2022/03/29 02:40:58;;;;;;;39.85;22.35;;;;;;;;;;5086064;28;20043;-76
2022/03/29 02:43:25;;;;;;;41.88;23.15;;;;;;;;;;5118901;27;20109;-79
2022/03/29 02:45:51;;;;;;;40.53;23.48;;;;;;;;;;5088011;28;20040;-75
2022/03/29 02:48:17;;;;;;;35.60;23.15;;;;;;;;;;5120549;27;20044;-75
2022/03/29 02:50:43;;;;;;;35.47;22.83;;;;;;;;;;5069859;28;20273;-76
2022/03/29 02:53:11;;;;;;;35.83;23.05;;;;;;;;;;5082205;28;20063;-75
2022/03/29 02:55:38;;;;;;;37.97;23.90;;;;;;;;;;5069224;28;20457;-74
2022/03/29 02:58:04;;;;;;;43.47;22.88;;;;;;;;;;5070122;28;20131;-75
2022/03/29 03:00:30;;;;;;;38.92;24.30;;;;;;;;;;5067461;28;21618;-75
2022/03/29 03:02:57;;;;;;;38.97;24.40;;;;;;;;;;5085533;28;20491;-74
2022/03/29 03:05:26;;;;;;;40.65;24.00;;;;;;;;;;5069240;28;20044;-74
2022/03/29 03:07:52;;;;;;;36.83;22.42;;;;;;;;;;5068758;28;20071;-74
2022/03/29 03:10:18;;;;;;;40.70;23.67;;;;;;;;;;5082618;28;20509;-75
2022/03/29 03:12:46;;;;;;;36.97;22.48;;;;;;;;;;5084611;28;20054;-75
2022/03/29 03:15:13;;;;;;;36.30;22.60;;;;;;;;;;5086425;28;20090;-75
2022/03/29 03:17:40;;;;;;;35.05;22.75;;;;;;;;;;5083505;28;20543;-78
2022/03/29 03:20:06;;;;;;;33.80;21.95;;;;;;;;;;5083378;28;20451;-75
2022/03/29 03:22:34;;;;;;;38.85;24.02;;;;;;;;;;5084540;28;20097;-75
2022/03/29 03:25:00;;;;;;;42.92;23.25;;;;;;;;;;5084497;28;20105;-75
2022/03/29 03:27:26;;;;;;;39.00;22.80;;;;;;;;;;5085600;28;20044;-75
2022/03/29 03:29:52;;;;;;;39.15;23.08;;;;;;;;;;5068186;28;20048;-75
2022/03/29 03:32:18;;;;;;;38.08;22.92;;;;;;;;;;5067191;28;20055;-74
2022/03/29 03:34:44;;;;;;;41.90;24.52;;;;;;;;;;5049907;28;20040;-76
2022/03/29 03:37:10;;;;;;;40.88;23.42;;;;;;;;;;5085711;28;20063;-75
2022/03/29 03:39:40;;;;;;;40.83;23.35;;;;;;;;;;5083797;28;20494;-75
2022/03/29 03:42:06;;;;;;;37.55;23.08;;;;;;;;;;5097188;27;20506;-74
2022/03/29 03:44:33;;;;;;;41.50;23.50;;;;;;;;;;5085196;28;20538;-76
2022/03/29 03:47:00;;;;;;;40.75;24.65;;;;;;;;;;5069704;28;20391;-74
2022/03/29 03:49:26;;;;;;;38.25;23.85;;;;;;;;;;5085617;28;20534;-75
2022/03/29 03:51:52;;;;;;;39.85;23.85;;;;;;;;;;5084444;28;20032;-79
2022/03/29 03:54:19;;;;;;;41.67;23.23;;;;;;;;;;5067061;28;20078;-74
2022/03/29 03:56:46;;;;;;;37.13;23.48;;;;;;;;;;5083976;28;20056;-75
2022/03/29 03:59:12;;;;;;;38.10;23.35;;;;;;;;;;5117619;27;20048;-75
2022/03/29 04:01:38;;;;;;;39.75;23.90;;;;;;;;;;5083224;28;20126;-75
2022/03/29 04:04:04;;;;;;;43.35;24.77;;;;;;;;;;5101106;27;20047;-74
2022/03/29 04:06:30;;;;;;;39.97;24.05;;;;;;;;;;5083195;28;20052;-79
2022/03/29 04:08:56;;;;;;;36.22;22.63;;;;;;;;;;5070054;28;20182;-78
2022/03/29 04:11:22;;;;;;;44.00;25.25;;;;;;;;;;5083547;28;20040;-77
2022/03/29 04:13:48;;;;;;;42.67;24.60;;;;;;;;;;5084462;28;20125;-74
2022/03/29 04:16:15;;;;;;;36.92;24.00;;;;;;;;;;5083660;28;20047;-74
2022/03/29 04:18:41;;;;;;;39.53;23.52;;;;;;;;;;5066883;28;20068;-74
2022/03/29 04:21:08;;;;;;;41.35;24.23;;;;;;;;;;5051206;28;20058;-74
2022/03/29 04:23:37;;;;;;;39.85;23.83;;;;;;;;;;5067265;28;20044;-79
2022/03/29 04:26:04;;;;;;;39.90;24.38;;;;;;;;;;5083256;28;20040;-74
2022/03/29 04:28:31;;;;;;;37.17;23.70;;;;;;;;;;5066251;28;20077;-75
2022/03/29 04:30:59;;;;;;;39.20;23.50;;;;;;;;;;5083258;28;20044;-75
2022/03/29 04:33:25;;;;;;;43.33;23.90;;;;;;;;;;5066315;28;20121;-74
2022/03/29 04:35:51;;;;;;;40.30;25.10;;;;;;;;;;5084129;28;20043;-74
2022/03/29 04:38:18;;;;;;;38.05;24.23;;;;;;;;;;5085250;28;20506;-77
2022/03/29 04:40:44;;;;;;;42.72;25.83;;;;;;;;;;5083747;28;20498;-74
2022/03/29 04:43:10;;;;;;;44.65;25.15;;;;;;;;;;5049815;28;20051;-76
2022/03/29 04:45:36;;;;;;;39.60;24.80;;;;;;;;;;5105933;27;20052;-81
2022/03/29 04:48:03;;;;;;;43.53;24.42;;;;;;;;;;5068435;28;20058;-78
2022/03/29 04:50:29;;;;;;;43.72;24.40;;;;;;;;;;5082604;28;20189;-73
2022/03/29 04:52:55;;;;;;;35.75;23.38;;;;;;;;;;5083719;28;20960;-74
2022/03/29 04:55:21;;;;;;;40.97;23.75;;;;;;;;;;5070437;28;20059;-75
2022/03/29 04:57:49;;;;;;;39.42;25.02;;;;;;;;;;5082751;28;20781;-78
2022/03/29 05:00:16;;;;;;;42.58;25.65;;;;;;;;;;5116916;27;20126;-74
2022/03/29 05:02:46;;;;;;;45.25;24.88;;;;;;;;;;5066788;28;20040;-74
2022/03/29 05:05:13;;;;;;;39.05;24.75;;;;;;;;;;5064866;28;20055;-74
2022/03/29 05:07:40;;;;;;;38.97;23.83;;;;;;;;;;5065010;28;20039;-75
2022/03/29 05:10:08;;;;;;;43.90;25.42;;;;;;;;;;5082931;28;20060;-77
2022/03/29 05:12:40;;;;;;;42.05;24.65;;;;;;;;;;5067975;28;20097;-74
2022/03/29 05:15:07;;;;;;;40.50;23.77;;;;;;;;;;5083183;28;20130;-74
2022/03/29 05:17:34;;;;;;;45.17;24.92;;;;;;;;;;5068904;28;20051;-74
2022/03/29 05:20:00;;;;;;;42.88;25.02;;;;;;;;;;5054278;28;20043;-76
2022/03/29 05:22:26;;;;;;;39.78;24.77;;;;;;;;;;5100946;28;20133;-76
2022/03/29 05:24:52;;;;;;;44.30;25.42;;;;;;;;;;5117558;27;20048;-74
2022/03/29 05:27:18;;;;;;;40.22;25.05;;;;;;;;;;5061547;28;20044;-75
2022/03/29 05:29:45;;;;;;;49.10;25.48;;;;;;;;;;5086252;28;20051;-73
2022/03/29 05:32:11;;;;;;;40.55;24.45;;;;;;;;;;5088198;28;20129;-77
2022/03/29 05:34:37;;;;;;;43.97;25.38;;;;;;;;;;5088191;28;20372;-75
2022/03/29 05:37:03;;;;;;;39.80;25.33;;;;;;;;;;5088283;28;20047;-75
2022/03/29 05:39:29;;;;;;;45.78;25.50;;;;;;;;;;5102126;27;20051;-77
2022/03/29 05:41:55;;;;;;;49.47;26.38;;;;;;;;;;5070451;28;20130;-77
2022/03/29 05:44:21;;;;;;;42.33;26.55;;;;;;;;;;5070895;28;20070;-75
2022/03/29 05:49:32;;;;;;;49.63;27.05;;;;;;;;;;5082700;28;20463;-78
2022/03/29 05:51:58;;;;;;;52.70;27.83;;;;;;;;;;5069525;28;20066;-77
2022/03/29 05:54:24;;;;;;;46.47;27.00;;;;;;;;;;5087401;28;20055;-80
2022/03/29 05:56:51;;;;;;;44.83;26.52;;;;;;;;;;5120080;27;20059;-77
2022/03/29 05:59:17;;;;;;;46.60;26.60;;;;;;;;;;5052213;28;20051;-78
2022/03/29 06:01:43;;;;;;;47.50;25.92;;;;;;;;;;5066967;28;20131;-81
2022/03/29 06:04:09;;;;;;;42.10;25.98;;;;;;;;;;5051444;28;20044;-88
2022/03/29 06:06:37;;;;;;;44.42;26.38;;;;;;;;;;5069502;28;20052;-78
2022/03/29 06:09:03;;;;;;;49.50;26.73;;;;;;;;;;5070510;28;20047;-77
2022/03/29 06:11:29;;;;;;;41.92;27.35;;;;;;;;;;5069555;28;20096;-78
2022/03/29 06:13:55;;;;;;;44.08;27.20;;;;;;;;;;5052774;28;20071;-87
2022/03/29 06:16:22;;;;;;;47.50;25.90;;;;;;;;;;5055811;28;20043;-78
2022/03/29 06:18:48;;;;;;;46.65;26.85;;;;;;;;;;5059405;28;20516;-77
2022/03/29 06:21:16;;;;;;;44.53;27.02;;;;;;;;;;5057900;28;20495;-78
2022/03/29 06:23:42;;;;;;;49.83;27.85;;;;;;;;;;5074820;28;20051;-77
2022/03/29 06:26:09;;;;;;;43.78;26.67;;;;;;;;;;5073342;28;20044;-77
2022/03/29 06:28:35;;;;;;;43.05;26.52;;;;;;;;;;5082842;28;20047;-80
2022/03/29 06:31:01;;;;;;;43.10;26.20;;;;;;;;;;5066291;28;20080;-77
2022/03/29 06:33:27;;;;;;;43.28;26.08;;;;;;;;;;5080690;28;20044;-80
2022/03/29 06:35:53;;;;;;;44.35;27.75;;;;;;;;;;5085780;28;20039;-77
2022/03/29 06:38:21;;;;;;;47.15;28.25;;;;;;;;;;5052011;28;20490;-77
2022/03/29 06:40:48;;;;;;;46.55;27.88;;;;;;;;;;5055253;28;20051;-77
2022/03/29 06:43:14;;;;;;;47.67;27.92;;;;;;;;;;5070524;28;20040;-78
2022/03/29 06:45:40;;;;;;;49.58;29.35;;;;;;;;;;5101611;28;20033;-77
2022/03/29 06:48:07;;;;;;;46.60;28.23;;;;;;;;;;5084519;28;20098;-77
2022/03/29 06:50:35;;;;;;;53.55;28.90;;;;;;;;;;5058632;28;20113;-77
2022/03/29 06:53:01;;;;;;;58.53;31.65;;;;;;;;;;5086068;28;20036;-77
2022/03/29 06:55:28;;;;;;;50.88;31.52;;;;;;;;;;5052482;28;20572;-77
2022/03/29 06:57:55;;;;;;;52.83;28.02;;;;;;;;;;5085489;28;20474;-77
2022/03/29 07:00:22;;;;;;;41.60;26.55;;;;;;;;;;5074340;28;20091;-78
2022/03/29 07:02:48;;;;;;;47.35;25.02;;;;;;;;;;5070660;28;20604;-78
2022/03/29 07:05:14;;;;;;;44.88;26.75;;;;;;;;;;5091631;28;20059;-78
2022/03/29 07:07:41;;;;;;;45.40;27.45;;;;;;;;;;5072037;28;20523;-79
2022/03/29 07:12:57;;;;;;;46.92;26.17;;;;;;;;;;5089814;28;20058;-78
2022/03/29 07:15:24;;;;;;;47.75;27.60;;;;;;;;;;5073828;28;20044;-79
2022/03/29 07:17:51;;;;;;;42.78;27.17;;;;;;;;;;5090923;28;20148;-81
2022/03/29 07:20:19;;;;;;;44.67;25.90;;;;;;;;;;5090737;28;20178;-78
2022/03/29 07:22:46;;;;;;;52.00;26.50;;;;;;;;;;5107986;28;20040;-75
2022/03/29 07:25:12;;;;;;;42.00;26.58;;;;;;;;;;5089928;28;20521;-74
2022/03/29 07:27:39;;;;;;;46.70;27.05;;;;;;;;;;5103363;28;20451;-75
2022/03/29 07:30:05;;;;;;;51.63;29.23;;;;;;;;;;5088975;28;20047;-75
2022/03/29 07:32:32;;;;;;;52.15;26.52;;;;;;;;;;5069420;28;20130;-75
2022/03/29 07:34:58;;;;;;;45.97;25.95;;;;;;;;;;5090138;28;20546;-78
2022/03/29 07:37:24;;;;;;;49.33;27.83;;;;;;;;;;5070023;28;20046;-75
2022/03/29 07:39:53;;;;;;;44.95;25.67;;;;;;;;;;5086624;28;20047;-77
2022/03/29 07:42:23;;;;;;;43.95;24.52;;;;;;;;;;5071432;28;20052;-74
2022/03/29 07:44:50;;;;;;;47.20;26.65;;;;;;;;;;5072933;28;20040;-75
2022/03/29 07:47:17;;;;;;;40.70;25.48;;;;;;;;;;5071787;28;20113;-75
2022/03/29 07:49:44;;;;;;;41.47;25.13;;;;;;;;;;5072120;28;20496;-76
2022/03/29 07:52:10;;;;;;;39.75;25.48;;;;;;;;;;5071423;28;20113;-75
2022/03/29 07:54:36;;;;;;;53.38;28.08;;;;;;;;;;5089420;28;20109;-75
2022/03/29 07:57:04;;;;;;;53.70;27.30;;;;;;;;;;5058349;28;20056;-75
2022/03/29 07:59:30;;;;;;;48.28;26.42;;;;;;;;;;5069872;28;20055;-76
2022/03/29 08:01:57;;;;;;;49.00;26.77;;;;;;;;;;5066895;28;20120;-76
2022/03/29 08:04:23;;;;;;;49.17;26.67;;;;;;;;;;5101369;27;20052;-77
2022/03/29 08:06:49;;;;;;;44.55;28.10;;;;;;;;;;5068827;28;20048;-76
2022/03/29 08:09:15;;;;;;;41.35;26.13;;;;;;;;;;5070752;28;21502;-76
2022/03/29 08:11:41;;;;;;;39.25;24.77;;;;;;;;;;5083942;28;20097;-75
2022/03/29 08:14:07;;;;;;;46.63;27.10;;;;;;;;;;5089125;28;20046;-76
2022/03/29 08:16:34;;;;;;;42.17;24.70;;;;;;;;;;5084619;28;20206;-79
2022/03/29 08:19:00;;;;;;;44.67;25.67;;;;;;;;;;5085224;28;20052;-78
2022/03/29 08:24:11;;;;;;;46.58;25.85;;;;;;;;;;5078688;28;20056;-77
2022/03/29 08:26:37;;;;;;;46.40;25.58;;;;;;;;;;5058279;28;20501;-76
2022/03/29 08:29:04;;;;;;;46.95;25.48;;;;;;;;;;5065229;28;20471;-76
2022/03/29 08:31:30;;;;;;;38.17;23.25;;;;;;;;;;5083502;28;20052;-78
2022/03/29 08:33:56;;;;;;;42.97;23.60;;;;;;;;;;5100383;27;20044;-81
2022/03/29 08:36:22;;;;;;;46.53;24.77;;;;;;;;;;5068166;28;20047;-74
2022/03/29 08:38:48;;;;;;;39.05;23.55;;;;;;;;;;5083651;28;20047;-76
2022/03/29 08:41:15;;;;;;;38.90;22.00;;;;;;;;;;5083935;28;20059;-76
2022/03/29 08:43:41;;;;;;;42.65;22.25;;;;;;;;;;5082273;28;20047;-74
2022/03/29 08:46:07;;;;;;;46.83;23.50;;;;;;;;;;5085491;28;20039;-77
2022/03/29 08:48:33;;;;;;;39.75;23.20;;;;;;;;;;5085598;28;20051;-76
2022/03/29 08:51:00;;;;;;;46.13;22.73;;;;;;;;;;5088350;28;20073;-77
2022/03/29 08:53:28;;;;;;;41.25;22.38;;;;;;;;;;5090080;28;20049;-76
2022/03/29 08:55:54;;;;;;;44.15;23.40;;;;;;;;;;5079458;28;20135;-78
2022/03/29 08:58:22;;;;;;;45.58;23.05;;;;;;;;;;5102247;28;20054;-75
2022/03/29 09:00:51;;;;;;;39.53;22.23;;;;;;;;;;5084238;28;20056;-76
2022/03/29 09:03:18;;;;;;;37.28;22.95;;;;;;;;;;5082510;28;20302;-75
2022/03/29 09:05:44;;;;;;;38.60;23.15;;;;;;;;;;5077861;28;20044;-77
2022/03/29 09:08:11;;;;;;;36.75;20.83;;;;;;;;;;5068547;28;20040;-81
2022/03/29 09:10:45;;;;;;;41.53;21.70;;;;;;;;;;5086888;28;20565;-77
2022/03/29 09:13:23;;;;;;;39.88;21.13;;;;;;;;;;5094591;28;20504;-79
2022/03/29 09:15:50;;;;;;;49.00;22.88;;;;;;;;;;5101978;28;20040;-79
2022/03/29 09:18:16;;;;;;;37.40;21.45;;;;;;;;;;5083495;28;20046;-82
2022/03/29 09:20:44;;;;;;;31.33;17.70;;;;;;;;;;5057948;28;20091;-82
2022/03/29 09:23:17;;;;;;;32.80;14.70;;;;;;;;;;5070604;28;20109;-81
2022/03/29 09:25:48;;;;;;;34.50;14.35;;;;;;;;;;5088892;28;20102;-78
2022/03/29 09:28:23;;;;;;;31.58;14.60;;;;;;;;;;5082280;28;20052;-80
2022/03/29 09:30:51;;;;;;;29.50;13.63;;;;;;;;;;5080034;28;20043;-78
2022/03/29 09:33:19;;;;;;;37.50;14.80;;;;;;;;;;5084253;28;20055;-79
2022/03/29 09:35:52;;;;;;;32.55;13.85;;;;;;;;;;5082787;28;20041;-78
2022/03/29 09:38:30;;;;;;;35.53;13.85;;;;;;;;;;5066355;28;20111;-80
2022/03/29 09:40:57;;;;;;;35.08;14.57;;;;;;;;;;5081736;28;20036;-78
2022/03/29 09:43:24;;;;;;;31.33;13.15;;;;;;;;;;5081398;28;20055;-80
2022/03/29 09:45:51;;;;;;;30.23;12.85;;;;;;;;;;5069334;28;20386;-78
2022/03/29 09:48:24;;;;;;;31.42;12.98;;;;;;;;;;5067813;28;20048;-80
2022/03/29 09:51:17;;;;;;;30.60;13.63;;;;;;;;;;5080886;28;20113;-79
2022/03/29 09:53:51;;;;;;;26.88;12.40;;;;;;;;;;5096735;28;20505;-80
2022/03/29 09:56:19;;;;;;;;;;;;;;;;;;5071752;28;20074;-81
2022/03/29 09:58:45;;;;;;;32.40;12.40;;;;;;;;;;5084607;28;20438;-79
2022/03/29 10:01:22;;;;;;;31.00;11.73;;;;;;;;;;5114437;28;20039;-80
2022/03/29 10:03:50;;;;;;;33.63;11.73;;;;;;;;;;5089200;28;20040;-80
2022/03/29 10:06:17;;;;;;;28.95;12.82;;;;;;;;;;5076288;28;20385;-79
2022/03/29 10:11:32;;;;;;;31.65;11.90;;;;;;;;;;5090389;28;20113;-84
2022/03/29 10:13:59;;;;;;;22.48;10.77;;;;;;;;;;5072449;28;20131;-85
2022/03/29 10:16:26;;;;;;;30.15;10.85;;;;;;;;;;5076205;28;20044;-84
2022/03/29 10:18:53;;;;;;;30.67;12.10;;;;;;;;;;5070739;28;20044;-82
2022/03/29 10:21:19;;;;;;;37.05;11.90;;;;;;;;;;5102893;27;20083;-85
2022/03/29 10:23:46;;;;;;;27.55;12.60;;;;;;;;;;5128682;27;20094;-82
2022/03/29 10:26:16;;;;;;;32.08;11.57;;;;;;;;;;5074758;28;20120;-80
2022/03/29 10:28:42;;;;;;;36.92;12.27;;;;;;;;;;5092741;28;20047;-82
2022/03/29 10:31:28;;;;;;;27.63;11.82;;;;;;;;;;5087116;28;20044;-78
2022/03/29 10:34:11;;;;;;;27.75;11.00;;;;;;;;;;5079209;28;20051;-79
2022/03/29 10:36:56;;;;;;;28.60;11.32;;;;;;;;;;5068743;28;20130;-79
2022/03/29 10:39:22;;;;;;;28.67;10.02;;;;;;;;;;5083564;28;20047;-79
2022/03/29 10:41:52;;;;;;;27.75;10.88;;;;;;;;;;5070773;28;20387;-79
2022/03/29 10:44:18;;;;;;;33.90;10.93;;;;;;;;;;5055452;28;20054;-80
2022/03/29 10:46:49;;;;;;;28.95;10.88;;;;;;;;;;5103952;27;20096;-84
2022/03/29 10:49:25;;;;;;;29.45;10.00;;;;;;;;;;5067142;28;20047;-79
2022/03/29 10:52:06;;;;;;;23.60;10.63;;;;;;;;;;5102072;28;20085;-79
2022/03/29 10:54:42;;;;;;;28.60;11.05;;;;;;;;;;5087171;28;20043;-81
2022/03/29 10:57:27;;;;;;;26.80;9.75;;;;;;;;;;5076636;28;20531;-83
2022/03/29 11:00:17;;;;;;;29.52;10.77;;;;;;;;;;5087330;28;20143;-81
2022/03/29 11:03:02;;;;;;;25.92;9.93;;;;;;;;;;5085853;28;20075;-80
2022/03/29 11:05:28;;;;;;;27.10;8.85;;;;;;;;;;5067396;28;20043;-81
2022/03/29 11:07:54;;;;;;;26.48;9.57;;;;;;;;;;5092395;28;20080;-88
2022/03/29 11:10:23;;;;;;;29.52;10.73;;;;;;;;;;5080168;28;20073;-81
2022/03/29 11:12:51;;;;;;;33.83;10.38;;;;;;;;;;5073538;28;20071;-79
2022/03/29 11:15:37;;;;;;;30.60;9.80;;;;;;;;;;5089565;28;20379;-84
2022/03/29 11:18:23;;;;;;;28.55;9.63;;;;;;;;;;5074417;28;20119;-77
2022/03/29 11:20:54;;;;;;;27.23;9.25;;;;;;;;;;5086265;28;20035;-80
2022/03/29 11:23:30;;;;;;;27.38;9.05;;;;;;;;;;5079392;28;20102;-79
2022/03/29 11:25:56;;;;;;;23.40;9.85;;;;;;;;;;5058323;28;20036;-80
2022/03/29 11:28:22;;;;;;;27.45;9.35;;;;;;;;;;5078028;28;20101;-81
2022/03/29 11:30:54;;;;;;;22.52;8.52;;;;;;;;;;5090512;28;20036;-81
2022/03/29 11:33:30;;;;;;;29.60;9.75;;;;;;;;;;5074485;28;20048;-83
2022/03/29 11:35:56;;;;;;;29.15;9.82;;;;;;;;;;5077549;28;20123;-77
2022/03/29 11:38:22;;;;;;;22.95;8.75;;;;;;;;;;5094200;28;20490;-80
2022/03/29 11:40:48;;;;;;;25.55;9.05;;;;;;;;;;5078793;28;20047;-77
2022/03/29 11:43:22;;;;;;;29.15;8.98;;;;;;;;;;5065275;28;20483;-79
2022/03/29 11:45:48;;;;;;;25.10;9.82;;;;;;;;;;5079187;28;20062;-79
2022/03/29 11:48:17;;;;;;;30.98;10.18;;;;;;;;;;5062398;28;20059;-77
2022/03/29 11:50:49;;;;;;;26.00;9.48;;;;;;;;;;5076182;28;20422;-80
2022/03/29 11:53:25;;;;;;;24.73;8.63;;;;;;;;;;5085024;28;20054;-77
2022/03/29 11:55:59;;;;;;;22.75;9.55;;;;;;;;;;5087254;28;20060;-76
2022/03/29 11:58:36;;;;;;;21.08;9.25;;;;;;;;;;5068123;28;20044;-83
2022/03/29 12:01:03;;;;;;;30.83;9.77;;;;;;;;;;5060514;28;20131;-77
2022/03/29 12:03:32;;;;;;;24.40;9.60;;;;;;;;;;5075994;28;20368;-80
2022/03/29 12:06:06;;;;;;;28.00;10.13;;;;;;;;;;5097150;27;20051;-78
2022/03/29 12:08:51;;;;;;;24.80;10.48;;;;;;;;;;5077627;28;20086;-76
2022/03/29 12:11:20;;;;;;;24.40;9.45;;;;;;;;;;5080039;28;20510;-76
2022/03/29 12:13:47;;;;;;;25.50;10.10;;;;;;;;;;5077349;28;20380;-77
2022/03/29 12:16:17;;;;;;;26.33;9.77;;;;;;;;;;5078350;28;20045;-80
2022/03/29 12:18:45;;;;;;;24.83;9.88;;;;;;;;;;5066600;28;20047;-76
2022/03/29 12:21:12;;;;;;;20.85;9.70;;;;;;;;;;5066731;28;20040;-83
2022/03/29 12:23:38;;;;;;;24.42;9.35;;;;;;;;;;5095866;27;20044;-86
2022/03/29 12:26:04;;;;;;;24.42;9.85;;;;;;;;;;5065158;28;20759;-84
2022/03/29 12:28:31;;;;;;;29.90;10.20;;;;;;;;;;5106584;27;20040;-83
2022/03/29 12:30:58;;;;;;;23.98;9.88;;;;;;;;;;5084660;28;20110;-80
2022/03/29 12:33:24;;;;;;;21.85;10.07;;;;;;;;;;5085755;28;20368;-84
2022/03/29 12:36:07;;;;;;;27.05;10.68;;;;;;;;;;5076184;28;20408;-85
2022/03/29 12:38:40;;;;;;;24.27;9.70;;;;;;;;;;5053334;28;20490;-79
2022/03/29 12:41:07;;;;;;;22.58;9.45;;;;;;;;;;5079434;28;20032;-78
2022/03/29 12:43:35;;;;;;;20.25;9.45;;;;;;;;;;5101446;28;20052;-78
2022/03/29 12:46:01;;;;;;;22.85;9.10;;;;;;;;;;5088240;28;20085;-82
2022/03/29 12:48:33;;;;;;;27.77;9.45;;;;;;;;;;5082358;28;20105;-82
2022/03/29 12:51:04;;;;;;;19.88;8.65;;;;;;;;;;5063583;28;21345;-77
2022/03/29 12:53:30;;;;;;;24.08;8.93;;;;;;;;;;5071054;28;20446;-82
2022/03/29 12:55:57;;;;;;;24.05;9.00;;;;;;;;;;5069728;28;20476;-76
2022/03/29 12:58:31;;;;;;;23.52;9.00;;;;;;;;;;5072101;28;20446;-81
2022/03/29 13:00:57;;;;;;;28.77;9.02;;;;;;;;;;5073711;28;20044;-76
2022/03/29 13:03:23;;;;;;;18.67;7.65;;;;;;;;;;5065743;28;20475;-85
2022/03/29 13:05:50;;;;;;;27.60;8.82;;;;;;;;;;5112711;28;20123;-82
2022/03/29 13:08:23;;;;;;;19.63;7.93;;;;;;;;;;5068984;28;20051;-83
2022/03/29 13:10:50;;;;;;;21.30;8.90;;;;;;;;;;5060390;28;20052;-79
2022/03/29 13:13:19;;;;;;;23.80;8.45;;;;;;;;;;5071224;28;20052;-78
2022/03/29 13:15:47;;;;;;;20.35;8.27;;;;;;;;;;5078510;28;20040;-76
2022/03/29 13:18:34;;;;;;;28.42;9.20;;;;;;;;;;5088940;28;20135;-82
2022/03/29 13:21:06;;;;;;;28.67;9.05;;;;;;;;;;5084754;28;20044;-80
2022/03/29 13:23:33;;;;;;;23.88;8.73;;;;;;;;;;5085454;28;20078;-77
2022/03/29 13:26:00;;;;;;;25.20;8.40;;;;;;;;;;5089909;28;20421;-78
2022/03/29 13:28:26;;;;;;;28.60;9.38;;;;;;;;;;5059028;28;20032;-76
2022/03/29 13:30:53;;;;;;;24.27;9.52;;;;;;;;;;5077113;28;20060;-78
2022/03/29 13:33:19;;;;;;;22.75;8.30;;;;;;;;;;5068338;28;20048;-79
2022/03/29 13:35:46;;;;;;;28.77;10.93;;;;;;;;;;5081427;28;20093;-78
2022/03/29 13:38:12;;;;;;;25.13;8.80;;;;;;;;;;5086385;28;20120;-78
2022/03/29 13:40:38;;;;;;;25.08;9.18;;;;;;;;;;5088766;28;20044;-78
2022/03/29 13:43:04;;;;;;;23.40;9.77;;;;;;;;;;5072290;28;20058;-78
2022/03/29 13:45:31;;;;;;;25.83;9.63;;;;;;;;;;5063803;28;20037;-78
2022/03/29 13:47:57;;;;;;;26.13;9.43;;;;;;;;;;5073020;28;20043;-78
2022/03/29 13:50:24;;;;;;;25.73;9.82;;;;;;;;;;5086887;28;20094;-83
2022/03/29 13:52:50;;;;;;;24.02;10.50;;;;;;;;;;5079808;28;20143;-78
2022/03/29 13:55:16;;;;;;;26.15;9.68;;;;;;;;;;5120502;27;20041;-78
2022/03/29 13:57:42;;;;;;;25.00;9.20;;;;;;;;;;5088771;28;20148;-82
2022/03/29 14:00:09;;;;;;;24.00;8.73;;;;;;;;;;5073608;28;20059;-80
2022/03/29 14:02:35;;;;;;;24.48;9.40;;;;;;;;;;5064916;28;20052;-79
2022/03/29 14:05:01;;;;;;;23.73;9.85;;;;;;;;;;5071108;28;20131;-78
2022/03/29 14:07:28;;;;;;;22.65;9.35;;;;;;;;;;5077527;28;20100;-77
2022/03/29 14:09:55;;;;;;;24.60;9.75;;;;;;;;;;5073569;28;20048;-80
2022/03/29 14:12:21;;;;;;;23.52;9.90;;;;;;;;;;5122764;27;20055;-83
2022/03/29 14:14:47;;;;;;;25.52;9.48;;;;;;;;;;5057914;28;20052;-85
2022/03/29 14:17:13;;;;;;;21.08;9.55;;;;;;;;;;5074145;28;20052;-78
2022/03/29 14:19:40;;;;;;;28.58;10.50;;;;;;;;;;5057514;28;20043;-77
2022/03/29 14:22:06;;;;;;;22.60;10.90;;;;;;;;;;5074816;28;20047;-78
2022/03/29 14:24:32;;;;;;;25.80;10.88;;;;;;;;;;5089445;28;20048;-79
2022/03/29 14:26:59;;;;;;;29.75;10.55;;;;;;;;;;5074821;28;20486;-79
2022/03/29 14:29:27;;;;;;;27.42;11.63;;;;;;;;;;5090528;28;20032;-82
2022/03/29 14:31:53;;;;;;;27.02;10.63;;;;;;;;;;5090414;28;20116;-79
2022/03/29 14:34:19;;;;;;;23.45;10.75;;;;;;;;;;5058416;28;20382;-77
2022/03/29 14:36:46;;;;;;;24.52;11.40;;;;;;;;;;5090836;28;20039;-77